Time;durP1;ratioP1;P1;durP2;ratioP2;P2;SDS_P1;SDS_P2;PMS_P1;PMS_P2;Temp;Humidity;BMP_temperature;BMP_pressure;BME280_temperature;BME280_humidity;BME280_pressure;Samples;Min_cycle;Max_cycle;Signal;HPM_P1;HPM_P2
2023/07/03 05:00:43;;;;;;;;;3.33;2.33;;;;;21.71;56.36;2846.69;5812344;23;45613;-85
2023/07/03 05:03:08;;;;;;;;;4.67;4.67;;;;;21.73;56.30;2169.34;5230041;23;45596;-83
2023/07/03 05:05:34;;;;;;;;;8.00;4.33;;;;;21.59;56.05;2506.72;4976470;28;45629;-86
2023/07/03 05:07:59;;;;;;;;;6.00;5.00;;;;;21.60;56.35;1829.56;4976402;28;47474;-83
2023/07/03 05:10:25;;;;;;;;;7.67;7.00;;;;;21.78;57.01;1153.63;4976954;28;45537;-84
2023/07/03 05:12:50;;;;;;;;;5.00;5.00;;;;;21.80;56.62;1492.47;4982176;28;45608;-85
2023/07/03 05:15:17;;;;;;;;;8.00;6.00;;;;;21.76;56.87;1492.19;4976173;28;45467;-83
2023/07/03 05:17:42;;;;;;;;;4.67;4.67;;;;;21.73;56.68;1153.25;4975712;28;45466;-83
2023/07/03 05:20:11;;;;;;;;;5.33;3.67;;;;;21.65;56.89;-201.38;4982425;28;45632;-85
2023/07/03 05:22:38;;;;;;;;;6.33;5.33;;;;;21.40;56.90;-541.00;4968380;28;45479;-84
2023/07/03 05:25:05;;;;;;;;;7.00;5.00;;;;;21.73;56.98;-539.50;4983511;28;45462;-83
2023/07/03 05:27:30;;;;;;;;;5.00;4.00;;;;;21.62;57.41;-1216.78;4976519;28;48348;-85
2023/07/03 05:29:57;;;;;;;;;7.00;4.00;;;;;21.69;57.51;-1554.94;4969752;28;45482;-82
2023/07/03 05:32:23;;;;;;;;;5.67;5.67;;;;;21.65;57.45;-1893.41;4985152;28;45477;-85
2023/07/03 05:34:48;;;;;;;;;5.33;4.67;;;;;21.40;57.31;-2232.16;4993174;28;45541;-84
2023/07/03 05:37:13;;;;;;;;;3.00;2.00;;;;;21.60;57.57;-2908.25;4991524;28;46966;-84
2023/07/03 05:39:39;;;;;;;;;4.67;4.33;;;;;20.96;57.74;-3246.59;4987896;28;56552;-84
2023/07/03 05:42:04;;;;;;;;;6.00;5.00;;;;;21.80;57.86;-2908.09;4980113;28;45468;-84
2023/07/03 05:44:30;;;;;;;;;4.00;4.00;;;;;21.41;57.43;-3246.50;4966564;28;45378;-84
2023/07/03 05:46:55;;;;;;;;;4.67;4.67;;;;;21.67;57.80;-2908.22;4969755;28;45441;-84
2023/07/03 05:49:21;;;;;;;;;5.33;5.33;;;;;21.73;57.15;-3246.44;4973646;28;45569;-85
2023/07/03 05:51:46;;;;;;;;;4.33;4.00;;;;;21.47;57.07;-3246.47;4978529;28;45488;-83
2023/07/03 05:54:11;;;;;;;;;4.33;4.00;;;;;21.35;57.24;-3246.50;4981731;28;45451;-85
2023/07/03 05:56:36;;;;;;;;;8.00;5.00;;;;;21.42;57.55;-3246.50;4984015;28;47146;-86
2023/07/03 05:59:04;;;;;;;;;9.67;5.00;;;;;20.91;57.54;-3246.59;4981212;28;45774;-84
2023/07/03 06:01:30;;;;;;;;;3.67;3.67;;;;;20.60;57.13;-2909.00;4964082;28;45556;-84
2023/07/03 06:03:55;;;;;;;;;5.00;5.00;;;;;21.77;56.71;-1893.13;4981941;28;45390;-86
2023/07/03 06:06:20;;;;;;;;;5.00;3.67;;;;;21.02;56.03;-1556.88;4984526;28;46298;-85
2023/07/03 06:08:55;;;;;;;;;3.00;3.00;;;;;20.65;56.00;-1220.09;4977805;28;45428;-85
2023/07/03 06:11:20;;;;;;;;;4.00;4.00;;;;;21.44;56.45;-879.09;4988473;28;45491;-87
2023/07/03 06:13:49;;;;;;;;;3.33;2.33;;;;;21.82;55.47;138.06;4962176;28;45628;-86
2023/07/03 06:16:58;;;;;;;;;8.00;3.00;;;;;21.88;54.63;1493.09;4981620;28;46974;-88
2023/07/03 06:19:25;;;;;;;;;2.67;2.67;;;;;21.77;54.63;1830.97;4959179;28;45493;-84
2023/07/03 06:21:50;;;;;;;;;2.00;2.00;;;;;21.61;54.76;2168.28;4983243;28;45510;-84
2023/07/03 06:25:06;;;;;;;;;3.67;3.67;;;;;21.12;54.42;2163.91;4989142;28;45486;-85
2023/07/03 06:28:08;;;;;;;;;4.00;4.00;;;;;22.10;54.20;2511.53;4827703;29;45678;-84
2023/07/03 06:30:48;;;;;;;;;3.67;3.33;;;;;21.97;54.02;3527.06;4842892;29;45460;-87
2023/07/03 06:33:17;;;;;;;;;3.33;3.33;;;;;22.02;53.98;4205.66;4858560;29;45548;-86
2023/07/03 06:35:43;;;;;;;;;8.00;3.00;;;;;20.85;53.69;5207.06;4857964;29;45657;-85
2023/07/03 06:38:08;;;;;;;;;4.00;4.00;;;;;21.18;53.85;5211.56;4856842;29;46828;-85
2023/07/03 06:40:35;;;;;;;;;4.33;3.00;;;;;21.57;53.49;5216.88;4845496;29;45552;-86
2023/07/03 06:43:00;;;;;;;;;3.00;3.00;;;;;22.05;53.29;5223.47;4857567;29;45370;-85
2023/07/03 06:45:25;;;;;;;;;4.00;3.00;;;;;21.44;53.32;5215.13;4858651;29;45405;-87
2023/07/03 06:47:51;;;;;;;;;4.00;4.00;;;;;21.32;53.11;5552.16;4857152;29;46448;-85
2023/07/03 06:50:16;;;;;;;;;3.33;3.33;;;;;21.50;53.00;6232.63;4857862;29;45807;-88
2023/07/03 06:52:42;;;;;;;;;6.00;4.67;;;;;22.33;52.83;6245.31;4857854;29;45448;-86
2023/07/03 06:55:11;;;;;;;;;4.00;3.33;;;;;22.34;53.25;5906.09;4857848;29;45507;-86
2023/07/03 06:58:13;;;;;;;;;5.00;3.00;;;;;22.43;52.97;6925.88;4850487;29;47014;-84
2023/07/03 07:00:39;;;;;;;;;4.67;4.00;;;;;21.33;52.89;6568.91;4855320;29;45589;-85
2023/07/03 07:04:01;;;;;;;;;6.00;3.00;;;;;22.58;52.38;6928.31;4880150;28;45488;-86
2023/07/03 07:06:38;;;;;;;;;4.33;3.33;;;;;21.41;52.60;7926.13;4960856;28;45497;-84
2023/07/03 07:09:03;;;;;;;;;4.00;3.00;;;;;21.84;51.83;8273.16;4974276;28;46289;-84
2023/07/03 07:15:09;;;;;;;;;3.00;3.00;;;;;22.61;52.59;8627.16;4967781;28;45417;-84
2023/07/03 07:17:35;;;;;;;;;6.00;3.00;;;;;22.30;51.96;8960.91;4949633;28;45636;-84
2023/07/03 07:20:00;;;;;;;;;4.67;3.00;;;;;22.71;52.65;8629.13;4982912;28;46950;-86
2023/07/03 07:22:28;;;;;;;;;26.33;25.67;;;;;21.81;52.16;8611.91;4977785;28;45367;-89
2023/07/03 07:24:53;;;;;;;;;3.00;3.00;;;;;22.71;52.39;8289.31;4984009;28;45485;-88
2023/07/03 07:27:19;;;;;;;;;5.00;3.00;;;;;22.71;52.18;8629.13;4975231;28;45577;-85
2023/07/03 07:29:44;;;;;;;;;4.67;4.00;;;;;22.77;52.45;7950.75;4976804;28;46240;-87
2023/07/03 07:32:12;;;;;;;;;2.00;2.00;;;;;22.70;52.35;8289.22;4974039;28;45609;-86
2023/07/03 07:34:37;;;;;;;;;5.00;4.00;;;;;22.42;52.38;8284.00;4949157;28;45675;-88
2023/07/03 07:37:03;;;;;;;;;3.33;3.33;;;;;22.57;52.55;8286.66;4970404;28;45609;-88
2023/07/03 07:39:29;;;;;;;;;4.33;4.33;;;;;22.55;53.07;8286.47;4963917;28;45823;-89
2023/07/03 07:41:56;;;;;;;;;3.33;3.33;;;;;22.54;52.32;8286.19;4970502;28;45626;-87
2023/07/03 07:44:26;;;;;;;;;4.00;4.00;;;;;22.33;52.57;7942.81;4970653;28;46894;-88
2023/07/03 07:46:51;;;;;;;;;4.00;2.33;;;;;22.59;52.83;7607.75;4976173;28;45465;-87
2023/07/03 07:49:19;;;;;;;;;4.00;4.00;;;;;22.67;52.92;7269.50;4978495;28;46832;-85
2023/07/03 07:51:45;;;;;;;;;5.33;4.00;;;;;22.30;53.04;6923.69;4979115;28;45830;-84
2023/07/03 07:54:10;;;;;;;;;3.33;3.33;;;;;22.29;53.15;6584.09;4982738;28;45497;-84
2023/07/03 07:57:22;;;;;;;;;6.00;3.00;;;;;23.02;53.01;6255.94;4977000;28;45455;-85
2023/07/03 07:59:47;;;;;;;;;4.00;3.67;;;;;21.93;52.45;7257.00;4976849;28;46401;-86
2023/07/03 08:02:16;;;;;;;;;5.00;3.00;;;;;21.85;52.60;7255.50;4972899;28;45743;-84
2023/07/03 08:05:15;;;;;;;;;5.00;3.00;;;;;23.06;52.55;7276.00;4982318;28;45647;-87
2023/07/03 08:07:40;;;;;;;;;4.00;4.00;;;;;22.93;52.82;6934.03;4990068;28;45605;-86
2023/07/03 08:10:09;;;;;;;;;6.67;5.33;;;;;22.31;52.45;6923.84;4977373;28;46441;-85
2023/07/03 08:13:27;;;;;;;;;5.33;5.00;;;;;23.16;52.91;6937.84;4977682;28;45492;-85
2023/07/03 08:16:53;;;;;;;;;62.00;39.00;;;;;22.05;52.52;6919.66;4978800;28;45422;-85
2023/07/03 08:19:58;;;;;;;;;24.33;18.67;;;;;23.27;52.50;6259.72;4925028;28;45427;-86
2023/07/03 08:22:29;;;;;;;;;9.00;4.00;;;;;22.54;52.71;6588.16;4897863;28;47098;-87
2023/07/03 08:24:56;;;;;;;;;16.33;11.00;;;;;22.34;52.92;5566.72;4915508;28;45426;-86
2023/07/03 08:27:59;;;;;;;;;13.00;8.33;;;;;23.63;52.90;5245.06;4916443;28;45596;-88
2023/07/03 08:30:28;;;;;;;;;6.00;5.00;;;;;22.55;52.16;6588.25;4915383;28;45419;-91
2023/07/03 08:32:54;;;;;;;;;9.67;3.00;;;;;23.52;51.70;7283.94;4914850;28;47229;-88
2023/07/03 08:38:22;;;;;;;;;1.00;1.00;;;;;23.68;50.87;8988.13;5006392;23;45600;-86
2023/07/03 08:41:00;;;;;;;;;6.67;4.33;;;;;22.55;50.60;9985.38;4987320;28;45838;-88
2023/07/03 08:43:42;;;;;;;;;5.33;4.00;;;;;23.62;50.85;10007.97;4984169;28;48197;-86
2023/07/03 08:46:36;;;;;;;;;7.67;5.33;;;;;22.96;51.03;10674.19;4996434;28;45511;-87
2023/07/03 08:49:05;;;;;;;;;5.00;4.67;;;;;22.79;50.56;11350.41;4994591;28;45396;-84
2023/07/03 08:51:41;;;;;;;;;5.67;4.67;;;;;23.38;51.10;10683.59;4994567;28;45721;-89
2023/07/03 08:54:18;;;;;;;;;10.33;8.00;;;;;23.66;50.76;11030.44;4994190;28;46448;-87
2023/07/03 08:56:44;;;;;;;;;5.00;4.00;;;;;23.11;51.24;11358.13;4998313;28;45421;-84
2023/07/03 08:59:09;;;;;;;;;6.67;6.33;;;;;23.58;50.45;12050.31;4997731;28;45419;-95
2023/07/03 09:01:41;;;;;;;;;8.00;6.00;;;;;23.61;50.32;12732.19;4996118;28;45576;-93
2023/07/03 09:04:45;;;;;;;;;6.00;5.00;;;;;23.55;50.10;13412.09;4995922;28;46074;-91
2023/07/03 09:07:25;;;;;;;;;8.67;6.67;;;;;23.47;50.09;13409.88;4994550;28;45954;-89
2023/07/03 09:10:04;;;;;;;;;6.33;4.33;;;;;23.58;49.95;13753.50;4987027;28;45538;-87
2023/07/03 09:12:51;;;;;;;;;7.33;6.00;;;;;23.75;49.81;13758.25;4990745;28;45577;-92
2023/07/03 09:15:57;;;;;;;;;4.67;4.33;;;;;24.11;49.96;13086.06;4988010;28;48304;-90
2023/07/03 09:18:28;;;;;;;;;4.67;4.00;;;;;24.51;49.48;12755.25;4991272;28;45656;-89
2023/07/03 09:21:03;;;;;;;;;5.67;5.00;;;;;24.90;48.10;14131.09;4975973;28;45844;-90
2023/07/03 09:23:55;;;;;;;;;5.00;3.33;;;;;25.18;47.88;15847.38;4985462;28;45656;-89
2023/07/03 09:26:32;;;;;;;;;7.00;4.33;;;;;25.24;46.79;17558.72;4981960;28;46997;-86
2023/07/03 09:28:58;;;;;;;;;11.00;9.00;;;;;25.05;47.32;18578.09;4985426;28;45494;-90
2023/07/03 09:31:28;;;;;;;;;23.00;23.00;;;;;25.32;46.89;19614.06;4994651;28;45534;-92
2023/07/03 09:36:37;;;;;;;;;4.67;4.67;;;;;25.50;46.92;21410.03;5131310;23;45590;-94
2023/07/03 09:48:11;;;;;;;;;7.00;5.00;;;;;25.02;46.95;23099.66;4980072;23;45494;-91
2023/07/03 09:51:24;;;;;;;;;7.00;4.00;;;;;25.77;45.92;27225.09;4922781;28;45582;-90
2023/07/03 09:57:05;;;;;;;;;6.00;4.33;;;;;25.56;45.48;30688.91;5234843;23;45422;-93
2023/07/03 10:00:14;;;;;;;;;6.00;3.00;;;;;24.46;46.08;31178.03;4951135;23;46908;-92
2023/07/03 10:02:55;;;;;;;;;4.33;2.67;;;;;25.31;45.69;30157.91;4878197;29;45584;-92
2023/07/03 10:05:30;;;;;;;;;5.00;3.33;;;;;25.89;45.67;29496.97;4875433;29;45552;-89
2023/07/03 10:08:01;;;;;;;;;4.00;4.00;;;;;25.97;45.28;29560.03;4876795;29;46056;-88
2023/07/03 10:10:48;;;;;;;;;2.67;2.67;;;;;25.77;43.59;31242.56;4884971;29;45489;-92
2023/07/03 10:13:28;;;;;;;;;6.00;3.33;;;;;26.02;43.33;34215.38;4880083;29;45901;-94
2023/07/03 10:15:55;;;;;;;;;5.00;3.00;;;;;26.65;43.24;35901.84;4870055;29;45859;-89
2023/07/03 10:25:15;;;;;;;;;4.00;3.33;;;;;25.92;42.18;44418.59;4999124;23;45708;-90
2023/07/03 10:27:44;;;;;;;;;3.00;3.00;;;;;25.96;41.62;45930.13;4955976;28;45546;-88
2023/07/03 10:30:15;;;;;;;;;3.00;3.00;;;;;26.19;43.03;43539.53;4939205;28;45481;-87
2023/07/03 10:32:45;;;;;;;;;2.33;2.33;;;;;27.72;40.30;46546.97;4959959;28;45886;-85
2023/07/03 10:35:22;;;;;;;;;6.33;3.33;;;;;27.84;38.20;50798.50;4955756;28;45709;-87
2023/07/03 10:38:05;;;;;;;;;3.00;3.00;;;;;28.77;37.36;53245.50;4960458;28;45587;-88
2023/07/03 10:41:17;;;;;;;;;2.75;2.75;;;;;29.17;37.65;54412.47;4950693;28;45707;-89
2023/07/03 10:44:07;;;;;;;;;4.00;4.00;;;;;29.36;36.16;56214.19;4880790;29;45569;-89
2023/07/03 10:46:39;;;;;;;;;3.33;3.00;;;;;29.65;35.01;58497.53;4876057;28;45496;-88
2023/07/03 10:49:13;;;;;;;;;6.00;6.00;;;;;30.31;33.55;60938.56;4885605;28;45404;-88
2023/07/03 10:51:55;;;;;;;;;6.00;4.33;;;;;31.34;32.18;63019.09;4913563;28;45654;-90
2023/07/03 10:54:33;;;;;;;;;2.00;2.00;;;;;31.58;31.17;64245.81;4890471;28;46902;-90
2023/07/03 10:57:09;;;;;;;;;1.75;1.25;;;;;31.95;30.19;65015.03;4891285;28;45472;-90
2023/07/03 10:59:43;;;;;;;;;2.00;2.00;;;;;32.18;29.35;65439.81;4887730;28;45738;-89
2023/07/03 11:02:17;;;;;;;;;2.00;2.00;;;;;32.94;28.32;65894.47;4912013;28;45506;-87
2023/07/03 11:04:48;;;;;;;;;3.00;3.00;;;;;33.17;28.68;66123.06;4907208;28;45558;-88
2023/07/03 11:07:37;;;;;;;;;2.75;1.50;;;;;32.73;29.13;66233.22;4899776;28;45490;-87
2023/07/03 11:10:26;;;;;;;;;4.75;2.25;;;;;32.83;28.88;66216.03;4892283;28;45548;-87
2023/07/03 11:13:05;;;;;;;;;2.00;2.00;;;;;33.55;27.28;66586.97;4890943;28;45769;-87
2023/07/03 11:15:49;;;;;;;;;5.00;3.67;;;;;34.20;26.69;66812.88;4890771;28;46164;-90
2023/07/03 11:18:33;;;;;;;;;5.00;3.67;;;;;34.39;26.48;66926.72;4947468;28;45799;-88
2023/07/03 11:21:30;;;;;;;;;4.67;3.67;;;;;34.23;26.25;66950.16;4951937;28;45572;-88
2023/07/03 11:24:05;;;;;;;;;2.00;2.00;;;;;34.80;25.98;67011.47;4960333;28;45753;-88
2023/07/03 11:26:44;;;;;;;;;4.50;3.25;;;;;34.64;25.21;67043.16;4967264;28;46641;-88
2023/07/03 11:29:11;;;;;;;;;2.25;0.50;;;;;34.61;25.95;67044.66;4962662;28;45646;-87
2023/07/03 11:31:39;;;;;;;;;4.00;2.00;;;;;34.68;24.95;67184.47;4979019;28;45550;-86
2023/07/03 11:34:08;;;;;;;;;3.00;2.00;;;;;34.82;25.37;67195.03;4978330;28;45441;-86
2023/07/03 11:36:40;;;;;;;;;2.00;1.67;;;;;35.46;24.79;67230.38;4989559;28;46481;-86
2023/07/03 11:39:24;;;;;;;;;3.00;3.00;;;;;34.99;24.90;67295.78;4981121;28;45371;-86
2023/07/03 11:42:02;;;;;;;;;3.00;1.67;;;;;35.40;24.68;67435.16;4968743;28;45909;-87
2023/07/03 11:44:27;;;;;;;;;1.00;1.00;;;;;35.34;23.94;67461.84;4944806;28;45699;-87
2023/07/03 11:46:55;;;;;;;;;1.00;1.00;;;;;35.13;24.29;67478.91;4988980;28;46313;-86
2023/07/03 11:49:24;;;;;;;;;3.00;0.00;;;;;35.29;24.55;67469.84;4973597;28;45472;-86
2023/07/03 11:51:56;;;;;;;;;2.67;1.33;;;;;35.26;24.22;67521.34;4970208;28;45769;-86
2023/07/03 11:54:26;;;;;;;;;6.00;2.67;;;;;34.72;24.17;67567.44;4981475;28;45773;-86
2023/07/03 11:56:55;;;;;;;;;0.00;0.00;;;;;34.58;24.08;67527.16;4969600;28;45508;-87
2023/07/03 11:59:23;;;;;;;;;5.00;2.33;;;;;35.04;23.99;67793.94;4960110;28;45581;-87
2023/07/03 12:02:07;;;;;;;;;2.67;2.67;;;;;33.92;24.23;67672.88;4967684;28;45696;-88
2023/07/03 12:04:51;;;;;;;;;1.33;1.00;;;;;34.56;23.96;67887.28;4959784;28;45731;-87
2023/07/03 12:07:16;;;;;;;;;2.00;1.33;;;;;34.33;24.03;67982.06;4957962;28;46580;-88
2023/07/03 12:09:42;;;;;;;;;1.00;1.00;;;;;33.66;24.42;68004.81;4946717;28;45487;-85
2023/07/03 12:12:18;;;;;;;;;4.33;2.67;;;;;33.59;24.41;68118.50;4968226;28;46608;-84
2023/07/03 12:15:10;;;;;;;;;1.67;1.67;;;;;32.68;24.59;68154.09;4968332;28;45528;-84
2023/07/03 12:17:36;;;;;;;;;1.00;1.00;;;;;32.53;24.61;68293.84;4946083;28;48651;-86
2023/07/03 12:20:07;;;;;;;;;1.00;1.00;;;;;32.74;25.15;68405.38;4959409;28;45513;-85
2023/07/03 12:22:47;;;;;;;;;3.00;3.00;;;;;32.47;25.54;68412.72;4949468;28;45598;-85
2023/07/03 12:25:18;;;;;;;;;2.00;2.00;;;;;32.32;25.56;68521.69;4962773;28;45711;-87
2023/07/03 12:27:43;;;;;;;;;4.00;3.00;;;;;32.14;26.13;68492.41;4969720;28;45631;-86
2023/07/03 12:30:18;;;;;;;;;2.00;2.00;;;;;31.95;25.90;68556.16;4965985;28;45438;-84
2023/07/03 12:32:48;;;;;;;;;3.33;1.67;;;;;31.70;26.09;68593.06;4969709;28;45520;-87
2023/07/03 12:35:19;;;;;;;;;4.33;3.33;;;;;31.41;25.88;68594.59;4941695;28;45467;-86
2023/07/03 12:37:53;;;;;;;;;0.00;0.00;;;;;;;;4964060;28;45933;-86
2023/07/03 12:40:21;;;;;;;;;2.00;2.00;;;;;30.84;26.27;68617.50;4964077;28;45519;-87
2023/07/03 12:42:48;;;;;;;;;2.00;2.00;;;;;31.21;26.73;68618.16;4974115;28;45438;-87
2023/07/03 12:45:23;;;;;;;;;1.67;0.67;;;;;31.02;26.71;68686.59;4972648;28;45987;-86
2023/07/03 12:48:07;;;;;;;;;6.00;6.00;;;;;31.13;27.45;68697.38;4968124;28;46683;-86
2023/07/03 12:50:46;;;;;;;;;3.67;3.00;;;;;31.08;27.28;68704.56;4945060;28;45548;-87
2023/07/03 12:53:12;;;;;;;;;6.00;3.00;;;;;30.73;27.56;68705.00;4964049;28;45470;-88
2023/07/03 12:55:40;;;;;;;;;4.33;4.33;;;;;30.94;27.73;68688.72;4976651;28;45482;-88
2023/07/03 12:58:06;;;;;;;;;8.00;6.33;;;;;30.70;28.17;68666.56;4942148;28;47442;-88
2023/07/03 13:00:34;;;;;;;;;1.00;1.00;;;;;30.88;27.98;68665.88;4968507;28;45623;-87
2023/07/03 13:03:06;;;;;;;;;7.00;5.00;;;;;30.58;28.11;68783.47;4963483;28;45561;-88
2023/07/03 13:05:39;;;;;;;;;7.00;5.00;;;;;30.79;27.98;68786.34;4951826;28;45466;-87
2023/07/03 13:08:12;;;;;;;;;15.00;14.67;;;;;30.43;28.19;68687.88;4974166;28;46192;-87
2023/07/03 13:10:37;;;;;;;;;8.00;8.00;;;;;30.05;28.15;68679.84;4966740;28;46104;-88
2023/07/03 13:13:11;;;;;;;;;10.33;6.33;;;;;30.65;28.21;68728.94;4972834;28;45493;-88
2023/07/03 13:15:42;;;;;;;;;5.67;5.67;;;;;30.17;28.53;68728.25;4937426;28;45680;-88
2023/07/03 13:18:13;;;;;;;;;6.00;5.67;;;;;29.91;28.07;68657.38;4966834;28;47131;-87
2023/07/03 13:20:57;;;;;;;;;2.00;1.67;;;;;30.40;28.47;68787.47;4971000;28;45510;-88
2023/07/03 13:23:29;;;;;;;;;3.00;2.00;;;;;30.10;28.40;68813.31;4968975;28;45476;-86
2023/07/03 13:25:58;;;;;;;;;2.00;1.33;;;;;30.34;28.73;68789.16;4971444;28;45514;-87
2023/07/03 13:28:27;;;;;;;;;3.33;3.33;;;;;30.29;28.44;68830.25;4949919;28;48362;-90
2023/07/03 13:31:06;;;;;;;;;2.67;2.67;;;;;29.93;28.95;68853.91;4959297;28;45837;-89
2023/07/03 13:33:34;;;;;;;;;1.00;1.00;;;;;29.77;28.51;68764.75;4962993;28;45403;-89
2023/07/03 13:36:24;;;;;;;;;4.00;3.00;;;;;29.90;29.53;68877.63;4967825;28;45470;-89
2023/07/03 13:39:06;;;;;;;;;2.33;2.33;;;;;29.77;29.25;68788.72;4957586;28;47428;-89
2023/07/03 13:41:32;;;;;;;;;4.00;3.00;;;;;29.39;29.48;68808.41;4965694;28;45772;-89
2023/07/03 13:43:58;;;;;;;;;18.67;18.67;;;;;29.84;29.36;68822.06;4966082;28;45608;-88
2023/07/03 13:46:26;;;;;;;;;2.67;2.33;;;;;29.78;29.41;68863.47;4954567;28;45497;-89
2023/07/03 13:48:53;;;;;;;;;2.00;2.00;;;;;29.07;30.25;68702.63;4958345;28;47524;-91
2023/07/03 13:51:19;;;;;;;;;2.00;2.00;;;;;29.21;29.80;68842.25;4972083;28;45581;-91
2023/07/03 13:53:44;;;;;;;;;2.67;2.67;;;;;28.94;29.68;68762.00;4958367;28;45471;-90
2023/07/03 13:56:09;;;;;;;;;5.00;4.00;;;;;29.61;29.65;68767.72;4948060;28;45526;-91
2023/07/03 13:58:35;;;;;;;;;3.33;2.00;;;;;29.61;29.84;68760.13;4961673;28;47576;-90
2023/07/03 14:01:00;;;;;;;;;3.00;3.00;;;;;29.23;30.03;68781.38;4972764;28;45536;-91
2023/07/03 14:03:25;;;;;;;;;3.67;3.67;;;;;29.64;30.02;68779.41;4976474;28;45460;-91
2023/07/03 14:05:51;;;;;;;;;5.00;3.00;;;;;29.30;30.06;68748.19;4983427;28;45459;-91
2023/07/03 14:08:17;;;;;;;;;4.00;3.00;;;;;29.10;29.92;68810.22;4968962;28;45611;-89
2023/07/03 14:10:43;;;;;;;;;4.33;4.33;;;;;29.18;30.37;68781.53;4965158;28;45464;-90
2023/07/03 14:13:09;;;;;;;;;5.00;3.67;;;;;29.66;30.25;68809.03;4983026;28;45534;-89
2023/07/03 14:15:36;;;;;;;;;5.00;3.67;;;;;28.90;29.84;68784.53;4979728;28;45577;-91
2023/07/03 14:18:02;;;;;;;;;7.00;4.00;;;;;28.90;30.05;68760.03;4976386;28;46027;-87
2023/07/03 14:20:28;;;;;;;;;6.00;4.33;;;;;29.36;30.17;68802.16;4983025;28;45870;-90
2023/07/03 14:22:53;;;;;;;;;3.00;3.00;;;;;29.22;30.08;68791.69;4974860;28;45679;-91
2023/07/03 14:25:18;;;;;;;;;2.67;2.67;;;;;29.04;29.98;68762.88;4971843;28;45566;-89
2023/07/03 14:27:44;;;;;;;;;5.33;3.67;;;;;29.11;30.34;68830.47;4966653;28;45955;-91
2023/07/03 14:30:11;;;;;;;;;4.67;3.33;;;;;29.05;30.56;68774.38;4969950;28;45450;-88
2023/07/03 14:32:37;;;;;;;;;3.67;3.00;;;;;29.27;30.06;68829.06;4970410;28;45494;-89
2023/07/03 14:35:06;;;;;;;;;5.33;3.67;;;;;28.63;29.96;68834.94;4977995;28;45481;-90
2023/07/03 14:37:46;;;;;;;;;4.67;2.67;;;;;28.38;30.45;68806.03;4972503;28;46230;-95
2023/07/03 14:40:12;;;;;;;;;5.33;4.00;;;;;28.68;29.70;68804.88;4975567;28;45496;-91
2023/07/03 14:42:37;;;;;;;;;8.00;6.00;;;;;28.50;30.54;68782.13;4952666;28;45467;-89
2023/07/03 14:45:03;;;;;;;;;6.67;4.33;;;;;29.07;31.08;68811.53;4967064;28;45450;-88
2023/07/03 14:47:29;;;;;;;;;4.00;4.00;;;;;29.29;30.50;68861.41;4950577;28;47423;-89
2023/07/03 14:49:54;;;;;;;;;3.67;3.67;;;;;28.93;30.51;68833.75;4966920;28;45831;-90
2023/07/03 14:52:19;;;;;;;;;3.00;3.00;;;;;28.90;30.61;68844.41;4972653;28;45457;-89
2023/07/03 14:54:49;;;;;;;;;6.00;4.33;;;;;28.66;31.44;68734.47;4958623;28;45494;-90
2023/07/03 14:57:15;;;;;;;;;5.00;4.00;;;;;29.18;30.36;68829.97;4966115;28;46536;-89
2023/07/03 14:59:43;;;;;;;;;4.00;4.00;;;;;28.77;30.55;68802.44;4950529;28;45478;-90
2023/07/03 15:02:08;;;;;;;;;6.00;5.00;;;;;29.28;30.47;68835.72;4974651;28;45554;-89
2023/07/03 15:04:34;;;;;;;;;5.33;5.33;;;;;29.24;30.92;68817.97;4962282;28;45639;-89
2023/07/03 15:06:59;;;;;;;;;8.33;6.67;;;;;29.21;30.76;68838.94;4980611;28;45515;-90
2023/07/03 15:09:25;;;;;;;;;4.33;4.33;;;;;28.86;30.69;68807.03;4975654;28;45493;-89
2023/07/03 15:11:51;;;;;;;;;6.00;5.00;;;;;28.61;30.83;68810.81;4975390;28;45426;-90
2023/07/03 15:14:16;;;;;;;;;6.00;6.00;;;;;28.54;30.79;68786.22;4963670;28;45416;-89
2023/07/03 15:16:41;;;;;;;;;10.00;9.67;;;;;28.39;30.58;68826.25;4959568;28;45482;-90
2023/07/03 15:19:10;;;;;;;;;5.00;5.00;;;;;28.62;30.93;68866.41;4981745;28;45493;-91
2023/07/03 15:21:37;;;;;;;;;4.33;4.00;;;;;28.82;30.86;68887.28;4984626;28;45610;-91
2023/07/03 15:24:10;;;;;;;;;6.67;5.67;;;;;27.73;31.16;68725.75;4959615;28;45449;-91
2023/07/03 15:26:36;;;;;;;;;5.00;5.00;;;;;28.19;31.05;68790.28;4971287;28;46359;-88
2023/07/03 15:29:02;;;;;;;;;6.00;5.00;;;;;28.17;31.08;68817.22;4968808;28;45545;-90
2023/07/03 15:31:27;;;;;;;;;4.33;3.00;;;;;28.81;31.16;68912.72;4974071;28;45402;-89
2023/07/03 15:33:53;;;;;;;;;6.00;6.00;;;;;28.29;31.09;68785.16;4976399;28;45362;-90
2023/07/03 15:36:19;;;;;;;;;6.00;5.00;;;;;28.50;31.71;68800.59;4977965;28;45504;-90
2023/07/03 15:38:44;;;;;;;;;3.00;3.00;;;;;28.71;31.39;68866.16;4991128;28;45656;-90
2023/07/03 15:41:10;;;;;;;;;6.67;5.67;;;;;27.81;31.33;68803.13;4952640;28;45747;-88
2023/07/03 15:43:35;;;;;;;;;5.00;5.00;;;;;28.45;31.78;68870.81;4962894;28;45552;-90
2023/07/03 15:46:16;;;;;;;;;6.33;6.33;;;;;28.20;32.00;68877.88;4969120;28;46530;-89
2023/07/03 15:48:43;;;;;;;;;6.67;4.33;;;;;28.46;31.44;68825.75;4989093;28;45519;-89
2023/07/03 15:51:11;;;;;;;;;5.33;5.00;;;;;28.14;31.74;68830.00;4985675;28;45375;-91
2023/07/03 15:53:36;;;;;;;;;5.00;5.00;;;;;27.91;31.82;68781.72;4957768;28;45813;-90
2023/07/03 15:56:03;;;;;;;;;5.67;4.33;;;;;28.43;31.88;68904.44;4969220;28;46462;-87
2023/07/03 15:58:31;;;;;;;;;5.33;5.00;;;;;28.43;32.05;68855.47;4978094;28;45482;-88
2023/07/03 16:01:11;;;;;;;;;6.00;6.00;;;;;27.74;32.18;68830.19;4963749;28;45481;-87
2023/07/03 16:03:37;;;;;;;;;9.33;6.33;;;;;28.17;32.19;68896.69;4946181;28;45565;-87
2023/07/03 16:06:02;;;;;;;;;7.00;5.67;;;;;28.33;32.13;68876.28;4983337;28;45659;-88
2023/07/03 16:08:28;;;;;;;;;5.00;5.00;;;;;28.30;32.76;68875.47;4973022;28;45485;-88
2023/07/03 16:10:54;;;;;;;;;5.33;5.33;;;;;28.26;32.85;68876.81;4967597;28;45464;-88
2023/07/03 16:13:26;;;;;;;;;7.67;6.00;;;;;28.25;32.85;68834.22;4980731;28;45572;-88
2023/07/03 16:15:55;;;;;;;;;6.00;6.00;;;;;27.35;32.48;68788.09;4980287;28;45667;-88
2023/07/03 16:18:20;;;;;;;;;4.67;4.67;;;;;28.00;32.32;68914.66;4991010;28;45569;-88
2023/07/03 16:20:56;;;;;;;;;6.00;6.00;;;;;27.82;32.63;68847.78;4953255;28;45951;-89
2023/07/03 16:23:25;;;;;;;;;7.67;6.67;;;;;27.84;32.88;68833.25;4986233;28;46503;-88
2023/07/03 16:25:55;;;;;;;;;7.67;6.67;;;;;28.10;32.60;68891.13;4960661;28;47743;-89
2023/07/03 16:28:21;;;;;;;;;6.67;6.67;;;;;28.10;33.09;68858.50;4973631;28;45467;-88
2023/07/03 16:30:59;;;;;;;;;7.00;6.00;;;;;28.08;32.51;68886.06;4957505;28;45425;-88
2023/07/03 16:33:24;;;;;;;;;6.33;6.33;;;;;27.86;32.81;68852.53;4962767;28;45410;-88
2023/07/03 16:35:58;;;;;;;;;8.67;8.67;;;;;27.64;32.71;68876.03;4959874;28;46100;-89
2023/07/03 16:38:24;;;;;;;;;8.67;8.67;;;;;27.78;33.21;68867.53;4963048;28;45481;-89
2023/07/03 16:40:50;;;;;;;;;8.33;8.33;;;;;27.47;33.15;68938.06;4963584;28;45668;-88
2023/07/03 16:43:15;;;;;;;;;9.00;9.00;;;;;27.63;32.88;68910.19;4973045;28;45370;-88
2023/07/03 16:45:41;;;;;;;;;9.00;9.00;;;;;27.58;32.96;68866.84;4974916;28;46136;-88
2023/07/03 16:48:07;;;;;;;;;10.67;9.33;;;;;27.73;33.04;68894.81;4973753;28;45485;-87
2023/07/03 16:50:32;;;;;;;;;9.33;8.33;;;;;27.10;33.07;68789.03;4966386;28;45576;-87
2023/07/03 16:52:57;;;;;;;;;8.33;6.67;;;;;27.65;33.22;68906.50;4952664;28;45513;-87
2023/07/03 16:55:23;;;;;;;;;7.33;6.67;;;;;27.52;33.21;68889.63;4976319;28;45895;-88
2023/07/03 16:57:48;;;;;;;;;10.33;7.00;;;;;27.67;33.35;68879.00;4971120;28;45659;-87
2023/07/03 17:00:13;;;;;;;;;9.00;7.33;;;;;27.39;33.59;68813.94;4963112;28;45636;-86
2023/07/03 17:02:39;;;;;;;;;12.00;7.00;;;;;27.30;33.17;68839.19;4970638;28;45369;-85
2023/07/03 17:05:05;;;;;;;;;8.00;8.00;;;;;27.08;33.27;68803.53;4970334;28;45367;-84
2023/07/03 17:07:30;;;;;;;;;11.00;8.67;;;;;27.61;33.51;68893.66;4973647;28;45597;-85
2023/07/03 17:09:56;;;;;;;;;10.00;7.00;;;;;27.41;33.07;68825.03;4966280;28;45619;-84
2023/07/03 17:12:22;;;;;;;;;5.67;5.00;;;;;27.51;33.48;68866.72;4966014;28;45454;-87
2023/07/03 17:14:47;;;;;;;;;5.33;5.33;;;;;27.35;33.24;68883.72;4959748;28;46358;-87
2023/07/03 17:17:12;;;;;;;;;9.00;7.33;;;;;27.13;33.34;68817.00;4957346;28;45510;-85
2023/07/03 17:19:38;;;;;;;;;8.33;7.33;;;;;27.28;33.03;68918.31;4944957;28;46430;-86
2023/07/03 17:22:03;;;;;;;;;9.67;8.67;;;;;26.99;33.39;68906.91;4969960;28;45604;-85
2023/07/03 17:24:29;;;;;;;;;7.00;6.33;;;;;27.24;33.21;68862.59;4969558;28;46687;-94